Vingaren — OZ2131 — position and weather

sailwx.info

Track history (hours):
 
Tides and Currents Weather Stations Pressure Air Temp Water Temp Dewpoint Dewpoint Depression Visibility Wind Speed Wind Dir Waves Ship Positions

Vingaren

Last reported at 2017-Oct-20 13:46 UTC. Time now 2017-Oct-20 14:54 UTC.
Position N 59°25' E 027°44'.

Length 89 m; draft 3.8 m.

Type: Cargo ship. MMSI: 231844000.

Date/timePositionNaut miles runAvg speedWind from/ knotsBaromVisibWave heightAir tempDewpointWater temp
2017-Oct-20 13:46N 59°25' E 027°44'0 0.0
2017-Oct-20 13:28N 59°25' E 027°44'0 0.0
2017-Oct-20 12:58N 59°25' E 027°44'0 0.0
2017-Oct-20 12:28N 59°25' E 027°44'0 0.0
2017-Oct-20 11:58N 59°25' E 027°44'0 0.0
2017-Oct-20 11:28N 59°25' E 027°44'0 0.0
2017-Oct-20 10:58N 59°25' E 027°44'0 0.0
2017-Oct-20 10:28N 59°25' E 027°44'0 0.0
2017-Oct-20 09:58N 59°25' E 027°44'0 0.0
2017-Oct-20 09:28N 59°25' E 027°44'0 0.0
2017-Oct-20 08:58N 59°25' E 027°44'0 0.0
2017-Oct-20 08:28N 59°25' E 027°44'0 0.0
2017-Oct-20 07:58N 59°25' E 027°44'0 0.0
2017-Oct-20 07:28N 59°25' E 027°44'0 0.0
2017-Oct-20 06:01N 59°25' E 027°44'0 0.0
2017-Oct-20 05:49N 59°25' E 027°44'0 0.0
2017-Oct-20 05:19N 59°25' E 027°44'0 0.0
2017-Oct-20 04:49N 59°25' E 027°44'0 0.0
2017-Oct-20 04:30N 59°25' E 027°44'1 1.3
2017-Oct-20 03:57N 59°26' E 027°45'2 5.6
2017-Oct-20 03:30N 59°28' E 027°43'4 8.6
2017-Oct-20 03:00N 59°31' E 027°36'5 9.7
2017-Oct-20 02:30N 59°33' E 027°27'510.0
2017-Oct-20 02:00N 59°35' E 027°18'6 9.9
2017-Oct-20 01:24N 59°37' E 027°07'7 9.7
2017-Oct-20 00:40N 59°40' E 026°54'2 9.9
2017-Oct-20 00:30N 59°41' E 026°51'510.0
2017-Oct-20 00:00N 59°42' E 026°42'5 9.9
2017-Oct-19 23:30N 59°44' E 026°33'510.1
2017-Oct-19 23:01N 59°45' E 026°23'510.1
2017-Oct-19 22:31N 59°45' E 026°13'21 9.9
2017-Oct-19 20:25N 59°44' E 025°31'5 9.8
2017-Oct-19 19:56N 59°45' E 025°22'410.0
2017-Oct-19 19:30N 59°44' E 025°14'510.1
2017-Oct-19 19:00N 59°44' E 025°04'5 9.9
2017-Oct-19 18:31N 59°44' E 024°54'5 9.9
2017-Oct-19 18:01N 59°44' E 024°44'510.2
2017-Oct-19 17:30N 59°43' E 024°34'510.1
2017-Oct-19 17:00N 59°42' E 024°24'510.2
2017-Oct-19 16:30N 59°41' E 024°15'810.1
2017-Oct-19 15:42N 59°38' E 023°59'310.3
2017-Oct-19 15:28N 59°37' E 023°55'710.5
2017-Oct-19 14:45N 59°35' E 023°41'310.5
2017-Oct-19 14:27N 59°34' E 023°35'510.5
2017-Oct-19 14:00N 59°32' E 023°26'30010.1
2017-Oct-18 08:14N 56°02' E 016°43'210.6
2017-Oct-18 08:00N 56°01' E 016°39'510.5
2017-Oct-18 07:30N 55°59' E 016°31'510.5
2017-Oct-18 07:00N 55°56' E 016°23'510.4
2017-Oct-18 06:30N 55°53' E 016°15'510.6
2017-Oct-18 06:00N 55°51' E 016°07'510.6
2017-Oct-18 05:30N 55°48' E 015°58'510.5
2017-Oct-18 05:00N 55°46' E 015°50'510.5
2017-Oct-18 04:30N 55°43' E 015°42'510.6
2017-Oct-18 04:00N 55°40' E 015°34'510.7
2017-Oct-18 03:30N 55°38' E 015°25'510.6
2017-Oct-18 03:00N 55°36' E 015°17'510.7
2017-Oct-18 02:30N 55°33' E 015°09'610.8
2017-Oct-18 01:55N 55°30' E 014°59'410.7
2017-Oct-18 01:30N 55°28' E 014°52'510.7
2017-Oct-18 01:00N 55°25' E 014°44'510.5
2017-Oct-18 00:30N 55°22' E 014°36'510.5
2017-Oct-18 00:00N 55°18' E 014°30'510.7
2017-Oct-17 23:30N 55°14' E 014°24'510.5
2017-Oct-17 23:00N 55°11' E 014°17'510.9
2017-Oct-17 22:30N 55°11' E 014°08'1211.1
2017-Oct-17 21:23N 55°12' E 013°46'610.9
2017-Oct-17 20:50N 55°12' E 013°36'410.3
2017-Oct-17 20:27N 55°13' E 013°29'510.4
2017-Oct-17 20:00N 55°13' E 013°20'510.4
2017-Oct-17 19:30N 55°14' E 013°11'510.5
2017-Oct-17 19:00N 55°14' E 013°02'510.6
2017-Oct-17 18:30N 55°15' E 012°53'510.9
2017-Oct-17 18:00N 55°17' E 012°44'4 8.9
2017-Oct-17 17:30N 55°20' E 012°38'5 9.3
2017-Oct-17 17:00N 55°24' E 012°39'5 9.8
2017-Oct-17 16:30N 55°29' E 012°42'4 8.9
2017-Oct-17 16:00N 55°32' E 012°46'4 8.1
2017-Oct-17 15:30N 55°36' E 012°51'4 8.3
2017-Oct-17 15:01N 55°38' E 012°57'2 4.5
2017-Oct-17 14:30N 55°37' E 012°60'0 0.0
2017-Oct-17 13:55N 55°37' E 013°00'0 0.0
2017-Oct-17 13:25N 55°37' E 013°00'0 0.0
2017-Oct-17 12:58N 55°37' E 013°00'0 0.0
2017-Oct-17 12:28N 55°37' E 013°00'0 0.0
2017-Oct-17 11:58N 55°37' E 013°00'0 0.0
2017-Oct-17 11:28N 55°37' E 013°00'0 0.0
2017-Oct-17 10:58N 55°37' E 013°00'0 0.0
2017-Oct-17 10:22N 55°37' E 013°00'0 0.0
2017-Oct-17 09:58N 55°37' E 013°00'0 0.0
2017-Oct-17 09:28N 55°37' E 013°00'0 0.0
2017-Oct-17 08:58N 55°37' E 012°60'0 0.0
2017-Oct-17 08:28N 55°37' E 012°60'0 0.0
2017-Oct-17 07:58N 55°37' E 013°00'0 0.0
2017-Oct-17 07:28N 55°37' E 012°60'0 0.0
2017-Oct-17 06:58N 55°37' E 012°60'0 0.0
2017-Oct-17 06:25N 55°37' E 012°60'0 0.0
2017-Oct-17 05:55N 55°37' E 012°60'0 0.0
2017-Oct-17 05:28N 55°37' E 012°60'0 0.0
2017-Oct-17 04:55N 55°37' E 012°60'0 0.0
2017-Oct-17 04:28N 55°37' E 012°60'0 0.0
2017-Oct-17 03:58N 55°37' E 012°60'0 0.0
2017-Oct-17 03:10N 55°37' E 012°60'0 0.0
2017-Oct-17 02:46N 55°37' E 012°60'0 0.0
2017-Oct-17 02:22N 55°37' E 012°60'0 0.0
2017-Oct-17 01:55N 55°37' E 012°60'0 0.0
2017-Oct-17 01:28N 55°37' E 012°60'0 0.0
2017-Oct-17 00:55N 55°37' E 012°60'0 0.0
2017-Oct-17 00:28N 55°37' E 012°60'0 0.0
2017-Oct-16 23:58N 55°37' E 012°60'0 0.0
2017-Oct-16 23:22N 55°37' E 012°60'0 0.0
2017-Oct-16 22:58N 55°37' E 012°60'0 0.0
2017-Oct-16 22:28N 55°37' E 012°60'0 0.0
2017-Oct-16 21:58N 55°37' E 012°60'0 0.0
2017-Oct-16 21:25N 55°37' E 012°60'0 0.0
2017-Oct-16 20:58N 55°37' E 012°60'0 0.0
2017-Oct-16 20:28N 55°37' E 012°60'0 0.0
2017-Oct-16 19:55N 55°37' E 012°60'0 0.0
2017-Oct-16 19:28N 55°37' E 012°60'0 0.0
2017-Oct-16 18:58N 55°37' E 012°60'0 0.0
2017-Oct-16 18:25N 55°37' E 012°60'0 0.0
2017-Oct-16 17:52N 55°37' E 013°00'0 0.0
2017-Oct-16 17:13N 55°37' E 013°00'0 0.0
2017-Oct-16 16:55N 55°37' E 013°00'0 0.0
2017-Oct-16 16:25N 55°37' E 013°00'0 0.0
2017-Oct-16 15:55N 55°37' E 013°00'0 0.0
2017-Oct-16 15:19N 55°37' E 013°00'0 0.0
2017-Oct-16 14:52N 55°37' E 013°00'0 0.0
2017-Oct-16 14:25N 55°37' E 013°00'0 0.0
2017-Oct-16 13:25N 55°37' E 013°00'0 0.0
2017-Oct-16 12:55N 55°37' E 013°00'0 0.0
2017-Oct-16 12:25N 55°37' E 013°00'0 0.0
2017-Oct-16 11:55N 55°37' E 013°00'0 0.0
2017-Oct-16 11:25N 55°37' E 013°00'0 0.0
2017-Oct-16 10:55N 55°37' E 013°00'0 0.0
2017-Oct-16 10:25N 55°37' E 013°00'0 0.0
2017-Oct-16 09:55N 55°37' E 013°00'0 0.0
2017-Oct-16 08:19N 55°37' E 013°00'0 0.0
2017-Oct-16 07:55N 55°37' E 013°00'0 0.0
2017-Oct-16 07:24N 55°37' E 013°00'0 0.0
2017-Oct-16 06:51N 55°37' E 013°00'0 0.0
2017-Oct-16 06:27N 55°37' E 013°00'0 0.0
2017-Oct-16 06:00N 55°37' E 013°00'0 0.0
2017-Oct-16 05:21N 55°37' E 013°00'0 0.0
2017-Oct-16 05:00N 55°37' E 013°00'0 0.0
2017-Oct-16 04:30N 55°37' E 013°00'0 0.0
2017-Oct-16 03:57N 55°37' E 013°00'0 0.0
2017-Oct-16 03:30N 55°37' E 013°00'0 0.0
2017-Oct-16 03:00N 55°37' E 013°00'0 0.0
2017-Oct-16 02:30N 55°37' E 013°00'0 0.0
2017-Oct-16 01:54N 55°37' E 013°00'0 0.0
2017-Oct-16 01:27N 55°37' E 013°00'0 0.0
2017-Oct-16 01:00N 55°37' E 013°00'0 0.0
2017-Oct-16 00:27N 55°37' E 013°00'0 0.0
2017-Oct-16 00:00N 55°37' E 013°00'0 0.0
2017-Oct-15 23:30N 55°37' E 013°00'0 0.0
2017-Oct-15 23:00N 55°37' E 013°00'0 0.0
2017-Oct-15 22:21N 55°37' E 013°00'0 0.0
2017-Oct-15 22:00N 55°37' E 013°00'0 0.0
2017-Oct-15 21:30N 55°37' E 013°00'0 0.0
2017-Oct-15 21:00N 55°37' E 013°00'0 0.0
2017-Oct-15 20:30N 55°37' E 013°00'0 0.0
2017-Oct-15 20:00N 55°37' E 013°00'0 0.0
2017-Oct-15 19:30N 55°37' E 013°00'0 0.0
2017-Oct-15 19:00N 55°37' E 013°00'0 0.0
2017-Oct-15 18:30N 55°37' E 013°00'0 0.0
2017-Oct-15 18:00N 55°37' E 013°00'0 0.0
2017-Oct-15 17:27N 55°37' E 013°00'0 0.0
2017-Oct-15 17:00N 55°37' E 013°00'0 0.0
2017-Oct-15 16:30N 55°37' E 013°00'0 0.0
2017-Oct-15 15:57N 55°37' E 013°00'0 0.0
2017-Oct-15 15:30N 55°37' E 013°00'0 0.0
2017-Oct-15 15:00N 55°37' E 013°00'0 0.0
2017-Oct-15 14:00N 55°37' E 013°00'0 0.0
2017-Oct-15 13:24N 55°37' E 013°00'0 0.0
2017-Oct-15 13:00N 55°37' E 013°00'0 0.0
2017-Oct-15 12:30N 55°37' E 013°00'0 0.0
2017-Oct-15 11:51N 55°37' E 013°00'0 0.0
2017-Oct-15 11:27N 55°37' E 013°00'0 0.0
2017-Oct-15 11:00N 55°37' E 013°00'0 0.0
2017-Oct-15 10:24N 55°37' E 013°00'0 0.0
2017-Oct-15 09:54N 55°37' E 013°00'0 0.0
2017-Oct-15 09:30N 55°37' E 013°00'0 0.0
2017-Oct-15 08:57N 55°37' E 013°00'0 0.0
2017-Oct-15 08:21N 55°37' E 013°00'0 0.0
2017-Oct-15 07:57N 55°37' E 013°00'0 0.0
2017-Oct-15 07:30N 55°37' E 013°00'0 0.0
2017-Oct-15 06:54N 55°37' E 013°00'0 0.0
2017-Oct-15 06:27N 55°37' E 013°00'0 0.0
2017-Oct-15 06:00N 55°37' E 013°00'0 0.0
2017-Oct-15 05:30N 55°37' E 013°00'0 0.0
2017-Oct-15 05:00N 55°37' E 013°00'0 0.0
2017-Oct-15 04:24N 55°37' E 013°00'0 0.0
2017-Oct-15 03:54N 55°37' E 013°00'0 0.0
2017-Oct-15 03:30N 55°37' E 013°00'0 0.0
2017-Oct-15 03:00N 55°37' E 013°00'0 0.0
2017-Oct-15 02:30N 55°37' E 013°00'0 0.0
2017-Oct-15 02:00N 55°37' E 013°00'0 0.0
2017-Oct-15 01:30N 55°37' E 013°00'0 0.0
2017-Oct-15 01:00N 55°37' E 013°00'0 0.0
2017-Oct-15 00:30N 55°37' E 013°00'0 0.0
2017-Oct-14 23:57N 55°37' E 013°00'0 0.0
2017-Oct-14 23:27N 55°37' E 013°00'0 0.0
2017-Oct-14 23:00N 55°37' E 013°00'0 0.0
2017-Oct-14 22:29N 55°37' E 013°00'0 0.0
2017-Oct-14 21:59N 55°37' E 013°00'0 0.0
2017-Oct-14 21:29N 55°37' E 013°00'0 0.0
2017-Oct-14 20:59N 55°37' E 013°00'0 0.0
2017-Oct-14 20:26N 55°37' E 013°00'0 0.0
2017-Oct-14 19:56N 55°37' E 013°00'0 0.0
2017-Oct-14 19:29N 55°37' E 013°00'0 0.0
2017-Oct-14 18:59N 55°37' E 013°00'0 0.0
2017-Oct-14 18:29N 55°37' E 013°00'0 0.0
2017-Oct-14 17:59N 55°37' E 013°00'0 0.0
2017-Oct-14 17:23N 55°37' E 013°00'0 0.0
2017-Oct-14 16:56N 55°37' E 013°00'0 0.0
2017-Oct-14 16:17N 55°37' E 013°00'0 0.0
2017-Oct-14 15:56N 55°37' E 013°00'0 0.0
2017-Oct-14 15:29N 55°37' E 013°00'0 0.0
2017-Oct-14 14:59N 55°37' E 013°00'0 0.0
2017-Oct-14 14:29N 55°37' E 013°00'0 0.0
2017-Oct-14 13:56N 55°37' E 013°00'0 0.0
2017-Oct-14 13:26N 55°37' E 013°00'0 0.0
2017-Oct-14 12:56N 55°37' E 013°00'0 0.0
2017-Oct-14 12:26N 55°37' E 013°00'0 0.0
2017-Oct-14 11:59N 55°37' E 013°00'0 0.0
2017-Oct-14 11:20N 55°37' E 013°00'0 0.0
2017-Oct-14 10:59N 55°37' E 013°00'0 0.0
2017-Oct-14 10:26N 55°37' E 013°00'0 0.0
2017-Oct-14 09:56N 55°37' E 013°00'0 0.0
2017-Oct-14 09:29N 55°37' E 013°00'0 0.0
2017-Oct-14 08:50N 55°37' E 013°00'0 0.0
2017-Oct-14 08:29N 55°37' E 013°00'0 0.0
2017-Oct-14 07:53N 55°37' E 013°00'0 0.0
2017-Oct-14 07:29N 55°37' E 013°00'0 0.0
2017-Oct-14 06:41N 55°37' E 013°00'0 0.0
2017-Oct-14 06:23N 55°37' E 013°00'0 0.0
2017-Oct-14 05:53N 55°37' E 013°00'0 0.0
2017-Oct-14 05:29N 55°37' E 013°00'0 0.0
2017-Oct-14 04:56N 55°37' E 013°00'0 0.0
2017-Oct-14 04:20N 55°37' E 013°00'0 0.0
2017-Oct-14 03:59N 55°37' E 013°00'0 0.0
2017-Oct-14 03:23N 55°37' E 013°00'0 0.0
2017-Oct-14 02:56N 55°37' E 013°00'0 0.0
2017-Oct-14 02:29N 55°37' E 013°00'0 0.0
2017-Oct-14 01:53N 55°37' E 013°00'0 0.0
2017-Oct-14 01:29N 55°37' E 013°00'0 0.0
2017-Oct-14 00:59N 55°37' E 013°00'0 0.0
2017-Oct-14 00:23N 55°37' E 013°00'0 0.0
2017-Oct-13 23:59N 55°37' E 013°00'0 0.0
2017-Oct-13 23:29N 55°37' E 013°00'0 0.0
2017-Oct-13 22:59N 55°37' E 013°00'0 0.0
2017-Oct-13 22:23N 55°37' E 013°00'0 0.0
2017-Oct-13 21:59N 55°37' E 013°00'0 0.0
2017-Oct-13 21:29N 55°37' E 013°00'0 0.0
2017-Oct-13 20:59N 55°37' E 013°00'0 0.0
2017-Oct-13 20:29N 55°37' E 013°00'0 0.0
2017-Oct-13 19:59N 55°37' E 013°00'0 0.0
2017-Oct-13 19:29N 55°37' E 013°00'0 0.0
2017-Oct-13 18:59N 55°37' E 013°00'0 0.0
2017-Oct-13 18:29N 55°37' E 013°00'0 0.0
2017-Oct-13 17:59N 55°37' E 013°00'0 0.0
2017-Oct-13 17:29N 55°37' E 013°00'0 0.0
2017-Oct-13 16:59N 55°37' E 013°00'0 0.0
2017-Oct-13 16:29N 55°37' E 013°00'0 0.0
2017-Oct-13 15:47N 55°37' E 013°00'0 0.0
2017-Oct-13 15:23N 55°37' E 013°00'0 0.0
2017-Oct-13 14:59N 55°37' E 013°00'0 0.0
2017-Oct-13 14:29N 55°37' E 013°00'0 0.0
2017-Oct-13 13:59N 55°37' E 013°00'0 0.0
2017-Oct-13 13:28N 55°37' E 013°00'0 0.0
2017-Oct-13 12:55N 55°37' E 013°00'0 0.0
2017-Oct-13 12:19N 55°37' E 013°00'0 0.0
2017-Oct-13 11:58N 55°37' E 013°00'0 0.0
2017-Oct-13 11:28N 55°37' E 013°00'0 0.0
2017-Oct-13 10:52N 55°37' E 013°00'0 0.0
2017-Oct-13 10:28N 55°37' E 013°00'0 0.0
2017-Oct-13 09:58N 55°37' E 013°00'0 0.0
2017-Oct-13 09:04N 55°37' E 013°00'0 0.0
2017-Oct-13 08:10N 55°37' E 013°00'0 0.0
2017-Oct-13 07:55N 55°37' E 013°00'0 0.0
2017-Oct-13 07:28N 55°37' E 013°00'0 0.0
2017-Oct-13 06:58N 55°37' E 013°00'0 0.0
2017-Oct-13 06:25N 55°37' E 013°00'0 0.0
2017-Oct-13 05:52N 55°37' E 013°00'0 0.0
2017-Oct-13 05:28N 55°37' E 013°00'0 0.0
2017-Oct-13 04:58N 55°37' E 013°00'0 0.0
2017-Oct-13 04:22N 55°37' E 013°00'0 0.6
2017-Oct-13 04:01N 55°37' E 012°60'0 0.5
2017-Oct-13 03:30N 55°37' E 013°00'0 0.0
2017-Oct-13 02:52N 55°37' E 013°00'0 0.0
2017-Oct-13 02:28N 55°37' E 013°00'0 0.0
2017-Oct-13 01:52N 55°37' E 013°00'0 0.0
2017-Oct-13 01:28N 55°37' E 013°00'0 0.0
2017-Oct-13 00:58N 55°37' E 013°00'0 0.0
2017-Oct-13 00:25N 55°37' E 013°00'0 0.0
2017-Oct-12 23:58N 55°37' E 013°00'0 0.0
2017-Oct-12 23:28N 55°37' E 013°00'0 0.0
2017-Oct-12 22:55N 55°37' E 013°00'0 0.0
2017-Oct-12 22:25N 55°37' E 013°00'0 0.0
2017-Oct-12 21:58N 55°37' E 013°00'0 0.0
2017-Oct-12 21:25N 55°37' E 013°00'0 0.0
2017-Oct-12 21:01N 55°37' E 013°00'0 0.0
2017-Oct-12 20:27N 55°37' E 013°00'0 0.0
2017-Oct-12 20:00N 55°37' E 013°00'0 0.0
2017-Oct-12 19:24N 55°37' E 013°00'0 0.0
2017-Oct-12 19:00N 55°37' E 013°00'0 0.0
2017-Oct-12 18:27N 55°37' E 013°00'0 0.0
2017-Oct-12 18:00N 55°37' E 013°00'0 0.0
2017-Oct-12 17:30N 55°37' E 013°00'0 0.0
2017-Oct-12 17:00N 55°37' E 013°00'0 0.0
2017-Oct-12 16:27N 55°37' E 013°00'0 0.0
2017-Oct-12 16:00N 55°37' E 013°00'0 0.0
2017-Oct-12 15:30N 55°37' E 013°00'0 0.0
2017-Oct-12 14:57N 55°37' E 013°00'0 0.0
2017-Oct-12 14:30N 55°37' E 013°00'0 0.0
2017-Oct-12 13:57N 55°37' E 013°00'0 0.0
2017-Oct-12 13:30N 55°37' E 013°00'0 0.0
2017-Oct-12 13:00N 55°37' E 013°00'0 0.0
2017-Oct-12 12:27N 55°37' E 013°00'0 0.0
2017-Oct-12 11:48N 55°37' E 013°00'0 0.0
2017-Oct-12 11:27N 55°37' E 013°00'0 0.0
2017-Oct-12 11:00N 55°37' E 013°00'0 0.0
2017-Oct-12 10:30N 55°37' E 013°00'0 0.0
2017-Oct-12 10:00N 55°37' E 013°00'0 0.0
2017-Oct-12 09:30N 55°37' E 013°00'0 0.0
2017-Oct-12 08:54N 55°37' E 013°00'0 0.0
2017-Oct-12 08:24N 55°37' E 013°00'0 0.0
2017-Oct-12 07:54N 55°37' E 013°00'0 0.0
2017-Oct-12 07:30N 55°37' E 013°00'0 0.0
2017-Oct-12 06:57N 55°37' E 013°00'0 0.0
2017-Oct-12 06:30N 55°37' E 013°00'0 0.0
2017-Oct-12 06:00N 55°37' E 013°00'0 0.0
2017-Oct-12 05:30N 55°37' E 013°00'0 0.0
2017-Oct-12 05:00N 55°37' E 013°00'0 0.0
2017-Oct-12 04:30N 55°37' E 013°00'0 0.0
2017-Oct-12 03:57N 55°37' E 013°00'0 0.0
2017-Oct-12 03:27N 55°37' E 013°00'0 0.0
2017-Oct-12 03:00N 55°37' E 013°00'0 0.0
2017-Oct-12 02:24N 55°37' E 013°00'0 0.0
2017-Oct-12 01:57N 55°37' E 013°00'0 0.0
2017-Oct-12 01:30N 55°37' E 013°00'0 0.0
2017-Oct-12 01:00N 55°37' E 013°00'0 0.0
2017-Oct-12 00:30N 55°37' E 013°00'0 0.0
2017-Oct-11 23:57N 55°37' E 013°00'0 0.0
2017-Oct-11 23:30N 55°37' E 013°00'0 0.0
2017-Oct-11 23:00N 55°37' E 013°00'1 1.8
2017-Oct-11 22:30N 55°38' E 012°59'3 6.3
2017-Oct-11 22:00N 55°37' E 012°53'5 9.4
2017-Oct-11 21:30N 55°33' E 012°48'5 9.7
2017-Oct-11 21:00N 55°29' E 012°43'510.0
2017-Oct-11 20:30N 55°24' E 012°41'510.0
2017-Oct-11 20:00N 55°19' E 012°40'5 9.2
2017-Oct-11 19:30N 55°17' E 012°47'5 9.5
2017-Oct-11 19:00N 55°16' E 012°55'5 9.6
2017-Oct-11 18:30N 55°16' E 013°03'5 9.6
2017-Oct-11 18:00N 55°15' E 013°12'5 9.4
2017-Oct-11 17:30N 55°15' E 013°20'5 9.5
2017-Oct-11 16:56N 55°15' E 013°30'  
Track history (hours):
 
Tides and Currents Weather Stations Pressure Air Temp Water Temp Dewpoint Dewpoint Depression Visibility Wind Speed Wind Dir Waves Ship Positions

Vingaren

Last reported at 2017-Oct-20 13:46 UTC. Time now 2017-Oct-20 14:54 UTC.
Position N 59°25' E 027°44'.

Length 89 m; draft 3.8 m.

Type: Cargo ship. MMSI: 231844000.

Date/timePositionNaut miles runAvg speedWind from/ knotsBaromVisibWave heightAir tempDewpointWater temp
2017-Oct-20 13:46N 59°25' E 027°44'0 0.0
2017-Oct-20 13:28N 59°25' E 027°44'0 0.0
2017-Oct-20 12:58N 59°25' E 027°44'0 0.0
2017-Oct-20 12:28N 59°25' E 027°44'0 0.0
2017-Oct-20 11:58N 59°25' E 027°44'0 0.0
2017-Oct-20 11:28N 59°25' E 027°44'0 0.0
2017-Oct-20 10:58N 59°25' E 027°44'0 0.0
2017-Oct-20 10:28N 59°25' E 027°44'0 0.0
2017-Oct-20 09:58N 59°25' E 027°44'0 0.0
2017-Oct-20 09:28N 59°25' E 027°44'0 0.0
2017-Oct-20 08:58N 59°25' E 027°44'0 0.0
2017-Oct-20 08:28N 59°25' E 027°44'0 0.0
2017-Oct-20 07:58N 59°25' E 027°44'0 0.0
2017-Oct-20 07:28N 59°25' E 027°44'0 0.0
2017-Oct-20 06:01N 59°25' E 027°44'0 0.0
2017-Oct-20 05:49N 59°25' E 027°44'0 0.0
2017-Oct-20 05:19N 59°25' E 027°44'0 0.0
2017-Oct-20 04:49N 59°25' E 027°44'0 0.0
2017-Oct-20 04:30N 59°25' E 027°44'1 1.3
2017-Oct-20 03:57N 59°26' E 027°45'2 5.6
2017-Oct-20 03:30N 59°28' E 027°43'4 8.6
2017-Oct-20 03:00N 59°31' E 027°36'5 9.7
2017-Oct-20 02:30N 59°33' E 027°27'510.0
2017-Oct-20 02:00N 59°35' E 027°18'6 9.9
2017-Oct-20 01:24N 59°37' E 027°07'7 9.7
2017-Oct-20 00:40N 59°40' E 026°54'2 9.9
2017-Oct-20 00:30N 59°41' E 026°51'510.0
2017-Oct-20 00:00N 59°42' E 026°42'5 9.9
2017-Oct-19 23:30N 59°44' E 026°33'510.1
2017-Oct-19 23:01N 59°45' E 026°23'510.1
2017-Oct-19 22:31N 59°45' E 026°13'21 9.9
2017-Oct-19 20:25N 59°44' E 025°31'5 9.8
2017-Oct-19 19:56N 59°45' E 025°22'410.0
2017-Oct-19 19:30N 59°44' E 025°14'510.1
2017-Oct-19 19:00N 59°44' E 025°04'5 9.9
2017-Oct-19 18:31N 59°44' E 024°54'5 9.9
2017-Oct-19 18:01N 59°44' E 024°44'510.2
2017-Oct-19 17:30N 59°43' E 024°34'510.1
2017-Oct-19 17:00N 59°42' E 024°24'510.2
2017-Oct-19 16:30N 59°41' E 024°15'810.1
2017-Oct-19 15:42N 59°38' E 023°59'310.3
2017-Oct-19 15:28N 59°37' E 023°55'710.5
2017-Oct-19 14:45N 59°35' E 023°41'310.5
2017-Oct-19 14:27N 59°34' E 023°35'510.5
2017-Oct-19 14:00N 59°32' E 023°26'30010.1
2017-Oct-18 08:14N 56°02' E 016°43'210.6
2017-Oct-18 08:00N 56°01' E 016°39'510.5
2017-Oct-18 07:30N 55°59' E 016°31'510.5
2017-Oct-18 07:00N 55°56' E 016°23'510.4
2017-Oct-18 06:30N 55°53' E 016°15'510.6
2017-Oct-18 06:00N 55°51' E 016°07'510.6
2017-Oct-18 05:30N 55°48' E 015°58'510.5
2017-Oct-18 05:00N 55°46' E 015°50'510.5
2017-Oct-18 04:30N 55°43' E 015°42'510.6
2017-Oct-18 04:00N 55°40' E 015°34'510.7
2017-Oct-18 03:30N 55°38' E 015°25'510.6
2017-Oct-18 03:00N 55°36' E 015°17'510.7
2017-Oct-18 02:30N 55°33' E 015°09'610.8
2017-Oct-18 01:55N 55°30' E 014°59'410.7
2017-Oct-18 01:30N 55°28' E 014°52'510.7
2017-Oct-18 01:00N 55°25' E 014°44'510.5
2017-Oct-18 00:30N 55°22' E 014°36'510.5
2017-Oct-18 00:00N 55°18' E 014°30'510.7
2017-Oct-17 23:30N 55°14' E 014°24'510.5
2017-Oct-17 23:00N 55°11' E 014°17'510.9
2017-Oct-17 22:30N 55°11' E 014°08'1211.1
2017-Oct-17 21:23N 55°12' E 013°46'610.9
2017-Oct-17 20:50N 55°12' E 013°36'410.3
2017-Oct-17 20:27N 55°13' E 013°29'510.4
2017-Oct-17 20:00N 55°13' E 013°20'510.4
2017-Oct-17 19:30N 55°14' E 013°11'510.5
2017-Oct-17 19:00N 55°14' E 013°02'510.6
2017-Oct-17 18:30N 55°15' E 012°53'510.9
2017-Oct-17 18:00N 55°17' E 012°44'4 8.9
2017-Oct-17 17:30N 55°20' E 012°38'5 9.3
2017-Oct-17 17:00N 55°24' E 012°39'5 9.8
2017-Oct-17 16:30N 55°29' E 012°42'4 8.9
2017-Oct-17 16:00N 55°32' E 012°46'4 8.1
2017-Oct-17 15:30N 55°36' E 012°51'4 8.3
2017-Oct-17 15:01N 55°38' E 012°57'2 4.5
2017-Oct-17 14:30N 55°37' E 012°60'0 0.0
2017-Oct-17 13:55N 55°37' E 013°00'0 0.0
2017-Oct-17 13:25N 55°37' E 013°00'0 0.0
2017-Oct-17 12:58N 55°37' E 013°00'0 0.0
2017-Oct-17 12:28N 55°37' E 013°00'0 0.0
2017-Oct-17 11:58N 55°37' E 013°00'0 0.0
2017-Oct-17 11:28N 55°37' E 013°00'0 0.0
2017-Oct-17 10:58N 55°37' E 013°00'0 0.0
2017-Oct-17 10:22N 55°37' E 013°00'0 0.0
2017-Oct-17 09:58N 55°37' E 013°00'0 0.0
2017-Oct-17 09:28N 55°37' E 013°00'0 0.0
2017-Oct-17 08:58N 55°37' E 012°60'0 0.0
2017-Oct-17 08:28N 55°37' E 012°60'0 0.0
2017-Oct-17 07:58N 55°37' E 013°00'0 0.0
2017-Oct-17 07:28N 55°37' E 012°60'0 0.0
2017-Oct-17 06:58N 55°37' E 012°60'0 0.0
2017-Oct-17 06:25N 55°37' E 012°60'0 0.0
2017-Oct-17 05:55N 55°37' E 012°60'0 0.0
2017-Oct-17 05:28N 55°37' E 012°60'0 0.0
2017-Oct-17 04:55N 55°37' E 012°60'0 0.0
2017-Oct-17 04:28N 55°37' E 012°60'0 0.0
2017-Oct-17 03:58N 55°37' E 012°60'0 0.0
2017-Oct-17 03:10N 55°37' E 012°60'0 0.0
2017-Oct-17 02:46N 55°37' E 012°60'0 0.0
2017-Oct-17 02:22N 55°37' E 012°60'0 0.0
2017-Oct-17 01:55N 55°37' E 012°60'0 0.0
2017-Oct-17 01:28N 55°37' E 012°60'0 0.0
2017-Oct-17 00:55N 55°37' E 012°60'0 0.0
2017-Oct-17 00:28N 55°37' E 012°60'0 0.0
2017-Oct-16 23:58N 55°37' E 012°60'0 0.0
2017-Oct-16 23:22N 55°37' E 012°60'0 0.0
2017-Oct-16 22:58N 55°37' E 012°60'0 0.0
2017-Oct-16 22:28N 55°37' E 012°60'0 0.0
2017-Oct-16 21:58N 55°37' E 012°60'0 0.0
2017-Oct-16 21:25N 55°37' E 012°60'0 0.0
2017-Oct-16 20:58N 55°37' E 012°60'0 0.0
2017-Oct-16 20:28N 55°37' E 012°60'0 0.0
2017-Oct-16 19:55N 55°37' E 012°60'0 0.0
2017-Oct-16 19:28N 55°37' E 012°60'0 0.0
2017-Oct-16 18:58N 55°37' E 012°60'0 0.0
2017-Oct-16 18:25N 55°37' E 012°60'0 0.0
2017-Oct-16 17:52N 55°37' E 013°00'0 0.0
2017-Oct-16 17:13N 55°37' E 013°00'0 0.0
2017-Oct-16 16:55N 55°37' E 013°00'0 0.0
2017-Oct-16 16:25N 55°37' E 013°00'0 0.0
2017-Oct-16 15:55N 55°37' E 013°00'0 0.0
2017-Oct-16 15:19N 55°37' E 013°00'0 0.0
2017-Oct-16 14:52N 55°37' E 013°00'0 0.0
2017-Oct-16 14:25N 55°37' E 013°00'0 0.0
2017-Oct-16 13:25N 55°37' E 013°00'0 0.0
2017-Oct-16 12:55N 55°37' E 013°00'0 0.0
2017-Oct-16 12:25N 55°37' E 013°00'0 0.0
2017-Oct-16 11:55N 55°37' E 013°00'0 0.0
2017-Oct-16 11:25N 55°37' E 013°00'0 0.0
2017-Oct-16 10:55N 55°37' E 013°00'0 0.0
2017-Oct-16 10:25N 55°37' E 013°00'0 0.0
2017-Oct-16 09:55N 55°37' E 013°00'0 0.0
2017-Oct-16 08:19N 55°37' E 013°00'0 0.0
2017-Oct-16 07:55N 55°37' E 013°00'0 0.0
2017-Oct-16 07:24N 55°37' E 013°00'0 0.0
2017-Oct-16 06:51N 55°37' E 013°00'0 0.0
2017-Oct-16 06:27N 55°37' E 013°00'0 0.0
2017-Oct-16 06:00N 55°37' E 013°00'0 0.0
2017-Oct-16 05:21N 55°37' E 013°00'0 0.0
2017-Oct-16 05:00N 55°37' E 013°00'0 0.0
2017-Oct-16 04:30N 55°37' E 013°00'0 0.0
2017-Oct-16 03:57N 55°37' E 013°00'0 0.0
2017-Oct-16 03:30N 55°37' E 013°00'0 0.0
2017-Oct-16 03:00N 55°37' E 013°00'0 0.0
2017-Oct-16 02:30N 55°37' E 013°00'0 0.0
2017-Oct-16 01:54N 55°37' E 013°00'0 0.0
2017-Oct-16 01:27N 55°37' E 013°00'0 0.0
2017-Oct-16 01:00N 55°37' E 013°00'0 0.0
2017-Oct-16 00:27N 55°37' E 013°00'0 0.0
2017-Oct-16 00:00N 55°37' E 013°00'0 0.0
2017-Oct-15 23:30N 55°37' E 013°00'0 0.0
2017-Oct-15 23:00N 55°37' E 013°00'0 0.0
2017-Oct-15 22:21N 55°37' E 013°00'0 0.0
2017-Oct-15 22:00N 55°37' E 013°00'0 0.0
2017-Oct-15 21:30N 55°37' E 013°00'0 0.0
2017-Oct-15 21:00N 55°37' E 013°00'0 0.0
2017-Oct-15 20:30N 55°37' E 013°00'0 0.0
2017-Oct-15 20:00N 55°37' E 013°00'0 0.0
2017-Oct-15 19:30N 55°37' E 013°00'0 0.0
2017-Oct-15 19:00N 55°37' E 013°00'0 0.0
2017-Oct-15 18:30N 55°37' E 013°00'0 0.0
2017-Oct-15 18:00N 55°37' E 013°00'0 0.0
2017-Oct-15 17:27N 55°37' E 013°00'0 0.0
2017-Oct-15 17:00N 55°37' E 013°00'0 0.0
2017-Oct-15 16:30N 55°37' E 013°00'0 0.0
2017-Oct-15 15:57N 55°37' E 013°00'0 0.0
2017-Oct-15 15:30N 55°37' E 013°00'0 0.0
2017-Oct-15 15:00N 55°37' E 013°00'0 0.0
2017-Oct-15 14:00N 55°37' E 013°00'0 0.0
2017-Oct-15 13:24N 55°37' E 013°00'0 0.0
2017-Oct-15 13:00N 55°37' E 013°00'0 0.0
2017-Oct-15 12:30N 55°37' E 013°00'0 0.0
2017-Oct-15 11:51N 55°37' E 013°00'0 0.0
2017-Oct-15 11:27N 55°37' E 013°00'0 0.0
2017-Oct-15 11:00N 55°37' E 013°00'0 0.0
2017-Oct-15 10:24N 55°37' E 013°00'0 0.0
2017-Oct-15 09:54N 55°37' E 013°00'0 0.0
2017-Oct-15 09:30N 55°37' E 013°00'0 0.0
2017-Oct-15 08:57N 55°37' E 013°00'0 0.0
2017-Oct-15 08:21N 55°37' E 013°00'0 0.0
2017-Oct-15 07:57N 55°37' E 013°00'0 0.0
2017-Oct-15 07:30N 55°37' E 013°00'0 0.0
2017-Oct-15 06:54N 55°37' E 013°00'0 0.0
2017-Oct-15 06:27N 55°37' E 013°00'0 0.0
2017-Oct-15 06:00N 55°37' E 013°00'0 0.0
2017-Oct-15 05:30N 55°37' E 013°00'0 0.0
2017-Oct-15 05:00N 55°37' E 013°00'0 0.0
2017-Oct-15 04:24N 55°37' E 013°00'0 0.0
2017-Oct-15 03:54N 55°37' E 013°00'0 0.0
2017-Oct-15 03:30N 55°37' E 013°00'0 0.0
2017-Oct-15 03:00N 55°37' E 013°00'0 0.0
2017-Oct-15 02:30N 55°37' E 013°00'0 0.0
2017-Oct-15 02:00N 55°37' E 013°00'0 0.0
2017-Oct-15 01:30N 55°37' E 013°00'0 0.0
2017-Oct-15 01:00N 55°37' E 013°00'0 0.0
2017-Oct-15 00:30N 55°37' E 013°00'0 0.0
2017-Oct-14 23:57N 55°37' E 013°00'0 0.0
2017-Oct-14 23:27N 55°37' E 013°00'0 0.0
2017-Oct-14 23:00N 55°37' E 013°00'0 0.0
2017-Oct-14 22:29N 55°37' E 013°00'0 0.0
2017-Oct-14 21:59N 55°37' E 013°00'0 0.0
2017-Oct-14 21:29N 55°37' E 013°00'0 0.0
2017-Oct-14 20:59N 55°37' E 013°00'0 0.0
2017-Oct-14 20:26N 55°37' E 013°00'0 0.0
2017-Oct-14 19:56N 55°37' E 013°00'0 0.0
2017-Oct-14 19:29N 55°37' E 013°00'0 0.0
2017-Oct-14 18:59N 55°37' E 013°00'0 0.0
2017-Oct-14 18:29N 55°37' E 013°00'0 0.0
2017-Oct-14 17:59N 55°37' E 013°00'0 0.0
2017-Oct-14 17:23N 55°37' E 013°00'0 0.0
2017-Oct-14 16:56N 55°37' E 013°00'0 0.0
2017-Oct-14 16:17N 55°37' E 013°00'0 0.0
2017-Oct-14 15:56N 55°37' E 013°00'0 0.0
2017-Oct-14 15:29N 55°37' E 013°00'0 0.0
2017-Oct-14 14:59N 55°37' E 013°00'0 0.0
2017-Oct-14 14:29N 55°37' E 013°00'0 0.0
2017-Oct-14 13:56N 55°37' E 013°00'0 0.0
2017-Oct-14 13:26N 55°37' E 013°00'0 0.0
2017-Oct-14 12:56N 55°37' E 013°00'0 0.0
2017-Oct-14 12:26N 55°37' E 013°00'0 0.0
2017-Oct-14 11:59N 55°37' E 013°00'0 0.0
2017-Oct-14 11:20N 55°37' E 013°00'0 0.0
2017-Oct-14 10:59N 55°37' E 013°00'0 0.0
2017-Oct-14 10:26N 55°37' E 013°00'0 0.0
2017-Oct-14 09:56N 55°37' E 013°00'0 0.0
2017-Oct-14 09:29N 55°37' E 013°00'0 0.0
2017-Oct-14 08:50N 55°37' E 013°00'0 0.0
2017-Oct-14 08:29N 55°37' E 013°00'0 0.0
2017-Oct-14 07:53N 55°37' E 013°00'0 0.0
2017-Oct-14 07:29N 55°37' E 013°00'0 0.0
2017-Oct-14 06:41N 55°37' E 013°00'0 0.0
2017-Oct-14 06:23N 55°37' E 013°00'0 0.0
2017-Oct-14 05:53N 55°37' E 013°00'0 0.0
2017-Oct-14 05:29N 55°37' E 013°00'0 0.0
2017-Oct-14 04:56N 55°37' E 013°00'0 0.0
2017-Oct-14 04:20N 55°37' E 013°00'0 0.0
2017-Oct-14 03:59N 55°37' E 013°00'0 0.0
2017-Oct-14 03:23N 55°37' E 013°00'0 0.0
2017-Oct-14 02:56N 55°37' E 013°00'0 0.0
2017-Oct-14 02:29N 55°37' E 013°00'0 0.0
2017-Oct-14 01:53N 55°37' E 013°00'0 0.0
2017-Oct-14 01:29N 55°37' E 013°00'0 0.0
2017-Oct-14 00:59N 55°37' E 013°00'0 0.0
2017-Oct-14 00:23N 55°37' E 013°00'0 0.0
2017-Oct-13 23:59N 55°37' E 013°00'0 0.0
2017-Oct-13 23:29N 55°37' E 013°00'0 0.0
2017-Oct-13 22:59N 55°37' E 013°00'0 0.0
2017-Oct-13 22:23N 55°37' E 013°00'0 0.0
2017-Oct-13 21:59N 55°37' E 013°00'0 0.0
2017-Oct-13 21:29N 55°37' E 013°00'0 0.0
2017-Oct-13 20:59N 55°37' E 013°00'0 0.0
2017-Oct-13 20:29N 55°37' E 013°00'0 0.0
2017-Oct-13 19:59N 55°37' E 013°00'0 0.0
2017-Oct-13 19:29N 55°37' E 013°00'0 0.0
2017-Oct-13 18:59N 55°37' E 013°00'0 0.0
2017-Oct-13 18:29N 55°37' E 013°00'0 0.0
2017-Oct-13 17:59N 55°37' E 013°00'0 0.0
2017-Oct-13 17:29N 55°37' E 013°00'0 0.0
2017-Oct-13 16:59N 55°37' E 013°00'0 0.0
2017-Oct-13 16:29N 55°37' E 013°00'0 0.0
2017-Oct-13 15:47N 55°37' E 013°00'0 0.0
2017-Oct-13 15:23N 55°37' E 013°00'0 0.0
2017-Oct-13 14:59N 55°37' E 013°00'0 0.0
2017-Oct-13 14:29N 55°37' E 013°00'0 0.0
2017-Oct-13 13:59N 55°37' E 013°00'0 0.0
2017-Oct-13 13:28N 55°37' E 013°00'0 0.0
2017-Oct-13 12:55N 55°37' E 013°00'0 0.0
2017-Oct-13 12:19N 55°37' E 013°00'0 0.0
2017-Oct-13 11:58N 55°37' E 013°00'0 0.0
2017-Oct-13 11:28N 55°37' E 013°00'0 0.0
2017-Oct-13 10:52N 55°37' E 013°00'0 0.0
2017-Oct-13 10:28N 55°37' E 013°00'0 0.0
2017-Oct-13 09:58N 55°37' E 013°00'0 0.0
2017-Oct-13 09:04N 55°37' E 013°00'0 0.0
2017-Oct-13 08:10N 55°37' E 013°00'0 0.0
2017-Oct-13 07:55N 55°37' E 013°00'0 0.0
2017-Oct-13 07:28N 55°37' E 013°00'0 0.0
2017-Oct-13 06:58N 55°37' E 013°00'0 0.0
2017-Oct-13 06:25N 55°37' E 013°00'0 0.0
2017-Oct-13 05:52N 55°37' E 013°00'0 0.0
2017-Oct-13 05:28N 55°37' E 013°00'0 0.0
2017-Oct-13 04:58N 55°37' E 013°00'0 0.0
2017-Oct-13 04:22N 55°37' E 013°00'0 0.6
2017-Oct-13 04:01N 55°37' E 012°60'0 0.5
2017-Oct-13 03:30N 55°37' E 013°00'0 0.0
2017-Oct-13 02:52N 55°37' E 013°00'0 0.0
2017-Oct-13 02:28N 55°37' E 013°00'0 0.0
2017-Oct-13 01:52N 55°37' E 013°00'0 0.0
2017-Oct-13 01:28N 55°37' E 013°00'0 0.0
2017-Oct-13 00:58N 55°37' E 013°00'0 0.0
2017-Oct-13 00:25N 55°37' E 013°00'0 0.0
2017-Oct-12 23:58N 55°37' E 013°00'0 0.0
2017-Oct-12 23:28N 55°37' E 013°00'0 0.0
2017-Oct-12 22:55N 55°37' E 013°00'0 0.0
2017-Oct-12 22:25N 55°37' E 013°00'0 0.0
2017-Oct-12 21:58N 55°37' E 013°00'0 0.0
2017-Oct-12 21:25N 55°37' E 013°00'0 0.0
2017-Oct-12 21:01N 55°37' E 013°00'0 0.0
2017-Oct-12 20:27N 55°37' E 013°00'0 0.0
2017-Oct-12 20:00N 55°37' E 013°00'0 0.0
2017-Oct-12 19:24N 55°37' E 013°00'0 0.0
2017-Oct-12 19:00N 55°37' E 013°00'0 0.0
2017-Oct-12 18:27N 55°37' E 013°00'0 0.0
2017-Oct-12 18:00N 55°37' E 013°00'0 0.0
2017-Oct-12 17:30N 55°37' E 013°00'0 0.0
2017-Oct-12 17:00N 55°37' E 013°00'0 0.0
2017-Oct-12 16:27N 55°37' E 013°00'0 0.0
2017-Oct-12 16:00N 55°37' E 013°00'0 0.0
2017-Oct-12 15:30N 55°37' E 013°00'0 0.0
2017-Oct-12 14:57N 55°37' E 013°00'0 0.0
2017-Oct-12 14:30N 55°37' E 013°00'0 0.0
2017-Oct-12 13:57N 55°37' E 013°00'0 0.0
2017-Oct-12 13:30N 55°37' E 013°00'0 0.0
2017-Oct-12 13:00N 55°37' E 013°00'0 0.0
2017-Oct-12 12:27N 55°37' E 013°00'0 0.0
2017-Oct-12 11:48N 55°37' E 013°00'0 0.0
2017-Oct-12 11:27N 55°37' E 013°00'0 0.0
2017-Oct-12 11:00N 55°37' E 013°00'0 0.0
2017-Oct-12 10:30N 55°37' E 013°00'0 0.0
2017-Oct-12 10:00N 55°37' E 013°00'0 0.0
2017-Oct-12 09:30N 55°37' E 013°00'0 0.0
2017-Oct-12 08:54N 55°37' E 013°00'0 0.0
2017-Oct-12 08:24N 55°37' E 013°00'0 0.0
2017-Oct-12 07:54N 55°37' E 013°00'0 0.0
2017-Oct-12 07:30N 55°37' E 013°00'0 0.0
2017-Oct-12 06:57N 55°37' E 013°00'0 0.0
2017-Oct-12 06:30N 55°37' E 013°00'0 0.0
2017-Oct-12 06:00N 55°37' E 013°00'0 0.0
2017-Oct-12 05:30N 55°37' E 013°00'0 0.0
2017-Oct-12 05:00N 55°37' E 013°00'0 0.0
2017-Oct-12 04:30N 55°37' E 013°00'0 0.0
2017-Oct-12 03:57N 55°37' E 013°00'0 0.0
2017-Oct-12 03:27N 55°37' E 013°00'0 0.0
2017-Oct-12 03:00N 55°37' E 013°00'0 0.0
2017-Oct-12 02:24N 55°37' E 013°00'0 0.0
2017-Oct-12 01:57N 55°37' E 013°00'0 0.0
2017-Oct-12 01:30N 55°37' E 013°00'0 0.0
2017-Oct-12 01:00N 55°37' E 013°00'0 0.0
2017-Oct-12 00:30N 55°37' E 013°00'0 0.0
2017-Oct-11 23:57N 55°37' E 013°00'0 0.0
2017-Oct-11 23:30N 55°37' E 013°00'0 0.0
2017-Oct-11 23:00N 55°37' E 013°00'1 1.8
2017-Oct-11 22:30N 55°38' E 012°59'3 6.3
2017-Oct-11 22:00N 55°37' E 012°53'5 9.4
2017-Oct-11 21:30N 55°33' E 012°48'5 9.7
2017-Oct-11 21:00N 55°29' E 012°43'510.0
2017-Oct-11 20:30N 55°24' E 012°41'510.0
2017-Oct-11 20:00N 55°19' E 012°40'5 9.2
2017-Oct-11 19:30N 55°17' E 012°47'5 9.5
2017-Oct-11 19:00N 55°16' E 012°55'5 9.6
2017-Oct-11 18:30N 55°16' E 013°03'5 9.6
2017-Oct-11 18:00N 55°15' E 013°12'5 9.4
2017-Oct-11 17:30N 55°15' E 013°20'5 9.5
2017-Oct-11 16:56N 55°15' E 013°30'  

Dump ship's entire track history